createdAt,value
2023-01-29T00:01:48.129Z,69.29
2023-01-29T00:04:14.659Z,68.77
2023-01-29T00:06:41.046Z,68.57
2023-01-29T00:09:07.512Z,69.00
2023-01-29T00:11:35.125Z,69.04
2023-01-29T00:14:01.675Z,68.80
2023-01-29T00:16:28.288Z,69.06
2023-01-29T00:18:54.969Z,69.40
2023-01-29T00:21:22.291Z,69.08
2023-01-29T00:23:49.238Z,69.34
2023-01-29T00:26:16.145Z,69.37
2023-01-29T00:28:42.684Z,69.65
2023-01-29T00:31:09.200Z,69.43
2023-01-29T00:33:35.777Z,69.80
2023-01-29T00:36:12.904Z,69.40
2023-01-29T00:38:39.374Z,69.62
2023-01-29T00:41:28.699Z,69.64
2023-01-29T00:44:13.613Z,70.09
2023-01-29T00:46:40.259Z,69.90
2023-01-29T00:49:07.152Z,69.90
2023-01-29T00:51:33.611Z,69.89
2023-01-29T00:54:00.144Z,70.19
2023-01-29T00:56:27.603Z,69.97
2023-01-29T00:58:53.993Z,69.92
2023-01-29T01:01:41.203Z,70.45
2023-01-29T01:04:08.564Z,70.56
2023-01-29T01:06:37.449Z,70.07
2023-01-29T01:09:23.034Z,70.19
2023-01-29T01:11:49.449Z,70.67
2023-01-29T01:14:15.850Z,70.57
2023-01-29T01:16:42.252Z,70.56
2023-01-29T01:19:08.708Z,70.81
2023-01-29T01:21:35.066Z,70.38
2023-01-29T01:24:01.880Z,70.92
2023-01-29T01:26:28.783Z,70.65
2023-01-29T01:28:55.408Z,70.94
2023-01-29T01:31:21.922Z,70.66
2023-01-29T01:33:49.158Z,70.93
2023-01-29T01:36:15.822Z,70.85
2023-01-29T01:38:45.171Z,70.93
2023-01-29T01:41:13.144Z,70.87
2023-01-29T01:43:51.968Z,70.70
2023-01-29T01:46:18.836Z,70.90
2023-01-29T01:48:46.981Z,70.91
2023-01-29T01:51:13.674Z,70.75
2023-01-29T01:53:42.011Z,70.64
2023-01-29T01:56:10.969Z,70.77
2023-01-29T01:58:40.652Z,71.02
2023-01-29T02:01:08.201Z,71.07
2023-01-29T02:04:06.223Z,70.49
2023-01-29T02:06:52.183Z,70.86
2023-01-29T02:09:38.770Z,70.43
2023-01-29T02:12:07.159Z,70.65
2023-01-29T02:14:34.511Z,70.68
2023-01-29T02:17:01.733Z,70.73
2023-01-29T02:19:41.999Z,70.67
2023-01-29T02:22:29.177Z,70.56
2023-01-29T02:25:14.417Z,70.44
2023-01-29T02:27:56.238Z,70.37
2023-01-29T02:30:33.596Z,70.69
2023-01-29T02:33:21.372Z,70.72
2023-01-29T02:35:56.492Z,70.97
2023-01-29T02:38:27.308Z,70.80
2023-01-29T02:40:56.949Z,70.60
2023-01-29T02:43:42.259Z,70.76
2023-01-29T02:46:11.740Z,70.55
2023-01-29T02:48:53.996Z,70.88
2023-01-29T02:51:25.081Z,70.68
2023-01-29T02:53:58.048Z,70.94
2023-01-29T02:56:28.809Z,70.79
2023-01-29T02:59:00.404Z,70.74
2023-01-29T03:01:30.328Z,70.86
2023-01-29T03:03:59.228Z,70.99
2023-01-29T03:06:30.082Z,70.99
2023-01-29T03:08:58.954Z,71.10
2023-01-29T03:11:27.853Z,71.07
2023-01-29T03:13:59.885Z,70.88
2023-01-29T03:16:36.771Z,70.74
2023-01-29T03:19:06.156Z,70.96
2023-01-29T03:21:52.717Z,71.21
2023-01-29T03:24:40.034Z,71.08
2023-01-29T03:27:27.740Z,71.19
2023-01-29T03:30:14.437Z,71.16
2023-01-29T03:32:42.829Z,71.21
2023-01-29T03:35:10.606Z,70.99
2023-01-29T03:37:41.381Z,71.13
2023-01-29T03:40:08.408Z,70.98
2023-01-29T03:42:37.478Z,71.04
2023-01-29T03:45:03.798Z,71.19
2023-01-29T03:47:42.086Z,71.23
2023-01-29T03:50:28.559Z,71.25
2023-01-29T03:53:17.101Z,71.85
2023-01-29T03:55:48.725Z,71.24
2023-01-29T03:58:25.473Z,71.30
2023-01-29T04:00:54.416Z,72.22
2023-01-29T04:03:22.932Z,72.15
2023-01-29T04:05:53.025Z,71.74
2023-01-29T04:08:27.524Z,72.01
2023-01-29T04:10:56.544Z,72.40
2023-01-29T04:13:24.065Z,71.82
2023-01-29T04:15:53.332Z,71.75
2023-01-29T04:18:19.683Z,71.71
2023-01-29T04:20:46.647Z,72.08
2023-01-29T04:23:23.236Z,72.22
2023-01-29T04:26:07.964Z,72.33
2023-01-29T04:28:53.486Z,71.55
2023-01-29T04:31:23.055Z,71.54
2023-01-29T04:34:04.426Z,71.53
2023-01-29T04:36:35.463Z,71.84
2023-01-29T04:39:01.805Z,71.83
2023-01-29T04:41:37.449Z,71.75
2023-01-29T04:44:08.509Z,71.83
2023-01-29T04:46:43.853Z,72.06
2023-01-29T04:49:17.841Z,71.60
2023-01-29T04:52:02.432Z,71.77
2023-01-29T04:54:37.216Z,71.68
2023-01-29T04:57:13.766Z,72.01
2023-01-29T04:59:42.623Z,71.59
2023-01-29T05:02:10.495Z,71.59
2023-01-29T05:04:38.691Z,71.44
2023-01-29T05:07:07.016Z,71.74
2023-01-29T05:09:35.286Z,71.79
2023-01-29T05:12:02.618Z,71.38
2023-01-29T05:14:30.918Z,71.61
2023-01-29T05:17:00.401Z,71.55
2023-01-29T05:19:27.034Z,71.53
2023-01-29T05:21:53.591Z,71.28
2023-01-29T05:24:22.085Z,71.52
2023-01-29T05:27:08.510Z,71.57
2023-01-29T05:29:35.092Z,71.37
2023-01-29T05:32:01.592Z,71.26
2023-01-29T05:34:28.042Z,71.56
2023-01-29T05:36:54.480Z,71.31
2023-01-29T05:39:21.016Z,71.70
2023-01-29T05:41:47.373Z,71.71
2023-01-29T05:44:13.744Z,71.76
2023-01-29T05:46:40.248Z,71.42
2023-01-29T05:49:06.682Z,71.31
2023-01-29T05:51:33.200Z,71.51
2023-01-29T05:53:59.529Z,71.55
2023-01-29T05:56:25.916Z,71.79
2023-01-29T05:58:52.307Z,71.79
2023-01-29T06:01:19.793Z,72.27
2023-01-29T06:03:46.461Z,71.71
2023-01-29T06:06:13.329Z,71.93
2023-01-29T06:08:39.709Z,72.33
2023-01-29T06:11:10.628Z,71.73
2023-01-29T06:13:37.082Z,72.39
2023-01-29T06:16:04.881Z,72.50
2023-01-29T06:18:31.232Z,72.00
2023-01-29T06:21:00.172Z,72.52
2023-01-29T06:23:26.539Z,72.86
2023-01-29T06:25:52.876Z,72.69
2023-01-29T06:28:19.280Z,72.73
2023-01-29T06:30:45.671Z,71.95
2023-01-29T06:33:12.026Z,72.25
2023-01-29T06:35:38.350Z,72.38
2023-01-29T06:38:04.802Z,72.58
2023-01-29T06:40:31.229Z,72.76
2023-01-29T06:42:58.429Z,72.69
2023-01-29T06:45:25.175Z,72.00
2023-01-29T06:47:51.606Z,73.18
2023-01-29T06:50:18.347Z,72.24
2023-01-29T06:52:44.873Z,72.22
2023-01-29T06:55:11.223Z,72.47
2023-01-29T06:57:37.604Z,72.68
2023-01-29T07:00:04.391Z,72.16
2023-01-29T07:02:30.746Z,72.19
2023-01-29T07:04:57.077Z,72.29
2023-01-29T07:07:23.471Z,71.92
2023-01-29T07:09:49.844Z,71.93
2023-01-29T07:12:16.186Z,72.36
2023-01-29T07:14:42.588Z,72.11
2023-01-29T07:17:08.919Z,72.10
2023-01-29T07:19:35.239Z,72.70
2023-01-29T07:22:03.208Z,72.56
2023-01-29T07:24:29.730Z,72.33
2023-01-29T07:26:56.812Z,72.13
2023-01-29T07:29:23.150Z,72.21
2023-01-29T07:31:49.748Z,71.88
2023-01-29T07:34:16.114Z,71.66
2023-01-29T07:36:42.474Z,71.76
2023-01-29T07:39:08.837Z,71.26
2023-01-29T07:41:35.385Z,71.39
2023-01-29T07:44:01.736Z,71.03
2023-01-29T07:46:28.134Z,71.03
2023-01-29T07:48:54.593Z,70.99
2023-01-29T07:51:21.386Z,70.77
2023-01-29T07:53:47.821Z,70.83
2023-01-29T07:56:14.291Z,71.43
2023-01-29T07:58:40.722Z,71.09
2023-01-29T08:01:07.854Z,70.80
2023-01-29T08:03:34.584Z,70.57
2023-01-29T08:06:01.070Z,70.76
2023-01-29T08:08:27.490Z,71.32
2023-01-29T08:10:53.791Z,71.41
2023-01-29T08:13:20.195Z,71.04
2023-01-29T08:15:46.727Z,71.19
2023-01-29T08:18:13.823Z,70.80
2023-01-29T08:20:40.205Z,70.75
2023-01-29T08:23:07.764Z,70.54
2023-01-29T08:25:35.272Z,70.39
2023-01-29T08:28:01.680Z,70.96
2023-01-29T08:30:29.360Z,70.46
2023-01-29T08:32:55.730Z,71.11
2023-01-29T08:35:22.120Z,70.94
2023-01-29T08:37:59.443Z,70.42
2023-01-29T08:40:26.612Z,70.48
2023-01-29T08:42:52.977Z,70.29
2023-01-29T08:45:19.552Z,70.46
2023-01-29T08:47:46.975Z,70.19
2023-01-29T08:50:13.464Z,70.60
2023-01-29T08:52:39.780Z,70.64
2023-01-29T08:55:06.368Z,70.89
2023-01-29T08:57:33.494Z,70.08
2023-01-29T09:00:00.046Z,69.76
2023-01-29T09:02:26.421Z,69.92
2023-01-29T09:04:52.782Z,69.86
2023-01-29T09:07:21.641Z,70.46
2023-01-29T09:09:48.019Z,69.38
2023-01-29T09:12:14.446Z,68.99
2023-01-29T09:14:40.811Z,69.46
2023-01-29T09:17:07.199Z,69.61
2023-01-29T09:19:33.586Z,69.35
2023-01-29T09:21:59.925Z,69.07
2023-01-29T09:24:26.310Z,69.65
2023-01-29T09:26:52.648Z,69.70
2023-01-29T09:29:19.042Z,69.56
2023-01-29T09:31:45.535Z,69.29
2023-01-29T09:34:11.955Z,69.27
2023-01-29T09:36:38.343Z,69.28
2023-01-29T09:39:04.826Z,69.21
2023-01-29T09:41:46.137Z,69.02
2023-01-29T09:44:20.247Z,69.14
2023-01-29T09:46:47.602Z,68.78
2023-01-29T09:49:18.751Z,69.02
2023-01-29T09:51:49.245Z,68.91
2023-01-29T09:54:22.993Z,68.69
2023-01-29T09:56:51.029Z,68.64
2023-01-29T09:59:18.883Z,68.70
2023-01-29T10:01:57.622Z,68.56
2023-01-29T10:04:34.245Z,68.59
2023-01-29T10:07:20.914Z,68.68
2023-01-29T10:09:53.256Z,68.91
2023-01-29T10:12:19.691Z,68.55
2023-01-29T10:14:51.888Z,68.54
2023-01-29T10:17:21.029Z,68.50
2023-01-29T10:19:56.773Z,68.25
2023-01-29T10:22:29.112Z,69.02
2023-01-29T10:25:02.472Z,68.09
2023-01-29T10:27:32.500Z,68.65
2023-01-29T10:30:00.519Z,68.24
2023-01-29T10:32:27.845Z,68.30
2023-01-29T10:35:03.001Z,68.49
2023-01-29T10:37:42.052Z,69.00
2023-01-29T10:40:37.027Z,68.51
2023-01-29T10:43:10.157Z,68.50
2023-01-29T10:45:43.721Z,68.52
2023-01-29T10:48:23.975Z,68.83
2023-01-29T10:51:09.159Z,68.66
2023-01-29T10:53:42.146Z,68.35
2023-01-29T10:56:21.841Z,69.14
2023-01-29T10:58:51.921Z,68.73
2023-01-29T11:01:18.330Z,68.93
2023-01-29T11:03:44.859Z,68.87
2023-01-29T11:06:15.102Z,68.85
2023-01-29T11:08:55.027Z,68.76
2023-01-29T11:11:22.414Z,69.28
2023-01-29T11:13:52.911Z,68.72
2023-01-29T11:16:19.264Z,68.68
2023-01-29T11:18:59.736Z,68.76
2023-01-29T11:21:27.687Z,67.82
2023-01-29T11:24:07.834Z,68.56
2023-01-29T11:26:39.479Z,68.47
2023-01-29T11:29:25.807Z,68.99
2023-01-29T11:31:53.079Z,68.95
2023-01-29T11:34:20.878Z,69.03
2023-01-29T11:36:56.237Z,69.19
2023-01-29T11:39:23.582Z,69.23
2023-01-29T11:41:53.045Z,69.59
2023-01-29T11:44:38.718Z,69.77
2023-01-29T11:47:14.370Z,69.92
2023-01-29T11:49:44.766Z,70.38
2023-01-29T11:52:11.818Z,71.13
2023-01-29T11:54:40.900Z,71.31
2023-01-29T11:57:20.140Z,71.38
2023-01-29T11:59:50.073Z,71.51
2023-01-29T12:02:20.582Z,71.59
2023-01-29T12:04:47.583Z,71.47
2023-01-29T12:07:15.834Z,71.68
2023-01-29T12:09:48.947Z,71.50
2023-01-29T12:12:37.339Z,71.72
2023-01-29T12:15:05.158Z,72.18
2023-01-29T12:17:33.470Z,72.55
2023-01-29T12:20:03.801Z,72.72
2023-01-29T12:22:48.678Z,72.85
2023-01-29T12:25:33.543Z,72.38
2023-01-29T12:27:59.920Z,72.52
2023-01-29T12:30:32.217Z,74.73
2023-01-29T12:33:24.660Z,74.76
2023-01-29T12:35:54.894Z,74.54
2023-01-29T12:38:22.067Z,74.87
2023-01-29T12:41:11.429Z,75.25
2023-01-29T12:43:37.725Z,75.56
2023-01-29T12:46:06.455Z,75.48
2023-01-29T12:48:34.624Z,75.95
2023-01-29T12:51:06.486Z,75.71
2023-01-29T12:53:37.225Z,75.47
2023-01-29T12:56:11.147Z,75.47
2023-01-29T12:58:41.420Z,74.92
2023-01-29T13:01:14.011Z,75.21
2023-01-29T13:04:02.550Z,75.04
2023-01-29T13:06:31.777Z,74.65
2023-01-29T13:09:00.371Z,75.14
2023-01-29T13:11:42.084Z,75.16
2023-01-29T13:14:08.447Z,75.15
2023-01-29T13:16:38.246Z,75.57
2023-01-29T13:19:06.450Z,75.49
2023-01-29T13:21:42.003Z,75.87
2023-01-29T13:24:16.253Z,76.22
2023-01-29T13:26:46.184Z,76.03
2023-01-29T13:29:23.281Z,76.40
2023-01-29T13:31:50.875Z,77.17
2023-01-29T13:34:25.245Z,77.04
2023-01-29T13:36:52.987Z,77.27
2023-01-29T13:39:22.517Z,76.70
2023-01-29T13:41:49.905Z,77.54
2023-01-29T13:44:31.625Z,76.51
2023-01-29T13:46:57.968Z,76.33
2023-01-29T13:49:26.787Z,76.03
2023-01-29T13:51:53.938Z,75.70
2023-01-29T13:54:23.463Z,75.92
2023-01-29T13:56:55.817Z,75.48
2023-01-29T13:59:24.857Z,75.55
2023-01-29T14:01:51.181Z,75.37
2023-01-29T14:04:28.271Z,75.28
2023-01-29T14:06:55.633Z,75.12
2023-01-29T14:09:37.196Z,75.00
2023-01-29T14:12:04.369Z,74.77
2023-01-29T14:14:49.340Z,74.77
2023-01-29T14:17:17.267Z,74.81
2023-01-29T14:19:47.300Z,75.18
2023-01-29T14:22:21.724Z,74.71
2023-01-29T14:24:48.772Z,74.81
2023-01-29T14:27:20.220Z,75.02
2023-01-29T14:29:46.586Z,74.51
2023-01-29T14:32:20.250Z,74.64
2023-01-29T14:34:47.532Z,74.84
2023-01-29T14:37:16.993Z,74.77
2023-01-29T14:39:44.639Z,74.83
2023-01-29T14:42:20.926Z,74.88
2023-01-29T14:44:48.565Z,75.17
2023-01-29T14:47:35.550Z,75.09
2023-01-29T14:50:03.637Z,75.08
2023-01-29T14:52:35.830Z,75.06
2023-01-29T14:55:04.068Z,75.08
2023-01-29T14:57:31.003Z,75.19
2023-01-29T14:59:57.441Z,76.07
2023-01-29T15:02:25.089Z,75.43
2023-01-29T15:04:54.079Z,75.43
2023-01-29T15:07:27.311Z,75.45
2023-01-29T15:10:13.528Z,75.35
2023-01-29T15:13:00.490Z,75.29
2023-01-29T15:15:27.588Z,75.08
2023-01-29T15:18:05.611Z,75.41
2023-01-29T15:20:33.383Z,75.05
2023-01-29T15:23:00.437Z,75.20
2023-01-29T15:25:29.022Z,74.78
2023-01-29T15:27:57.078Z,75.60
2023-01-29T15:30:27.156Z,75.01
2023-01-29T15:32:53.770Z,74.86
2023-01-29T15:35:36.893Z,74.80
2023-01-29T15:38:05.138Z,74.38
2023-01-29T15:40:31.726Z,74.58
2023-01-29T15:42:58.058Z,74.35
2023-01-29T15:45:27.381Z,73.99
2023-01-29T15:47:55.970Z,73.90
2023-01-29T15:50:22.939Z,74.10
2023-01-29T15:52:51.391Z,73.67
2023-01-29T15:55:19.699Z,74.19
2023-01-29T15:57:46.259Z,74.19
2023-01-29T16:00:23.599Z,73.88
2023-01-29T16:02:50.430Z,73.81
2023-01-29T16:05:18.917Z,74.32
2023-01-29T16:07:46.237Z,73.65
2023-01-29T16:10:17.745Z,73.58
2023-01-29T16:12:47.240Z,73.94
2023-01-29T16:15:19.349Z,73.69
2023-01-29T16:17:45.929Z,73.23
2023-01-29T16:20:20.726Z,73.98
2023-01-29T16:22:47.156Z,73.77
2023-01-29T16:25:15.189Z,74.29
2023-01-29T16:27:43.573Z,75.03
2023-01-29T16:30:13.632Z,75.23
2023-01-29T16:32:40.190Z,75.40
2023-01-29T16:35:07.081Z,75.40
2023-01-29T16:37:35.692Z,75.76
2023-01-29T16:40:12.465Z,76.03
2023-01-29T16:42:40.726Z,76.50
2023-01-29T16:45:26.938Z,76.27
2023-01-29T16:47:59.640Z,76.71
2023-01-29T16:50:35.918Z,77.16
2023-01-29T16:53:05.570Z,76.72
2023-01-29T16:55:42.696Z,77.26
2023-01-29T16:58:16.712Z,76.83
2023-01-29T17:00:47.625Z,76.97
2023-01-29T17:03:15.346Z,77.32
2023-01-29T17:05:41.839Z,77.29
2023-01-29T17:08:14.137Z,77.36
2023-01-29T17:10:47.165Z,76.98
2023-01-29T17:13:18.475Z,76.44
2023-01-29T17:15:46.072Z,76.70
2023-01-29T17:18:23.068Z,77.38
2023-01-29T17:20:49.865Z,78.00
2023-01-29T17:23:16.284Z,77.41
2023-01-29T17:25:42.855Z,77.98
2023-01-29T17:28:12.252Z,78.32
2023-01-29T17:30:44.698Z,78.70
2023-01-29T17:33:18.438Z,78.30
2023-01-29T17:35:45.488Z,78.31
2023-01-29T17:38:24.266Z,78.27
2023-01-29T17:41:04.259Z,78.50
2023-01-29T17:43:30.588Z,78.40
2023-01-29T17:45:57.072Z,78.80
2023-01-29T17:48:25.098Z,78.60
2023-01-29T17:50:53.484Z,78.97
2023-01-29T17:53:20.763Z,78.91
2023-01-29T17:55:47.367Z,79.20
2023-01-29T17:58:19.496Z,79.24
2023-01-29T18:00:46.449Z,79.18
2023-01-29T18:03:13.352Z,79.29
2023-01-29T18:05:42.806Z,79.61
2023-01-29T18:08:15.589Z,79.51
2023-01-29T18:10:42.035Z,79.76
2023-01-29T18:13:08.373Z,79.46
2023-01-29T18:15:34.713Z,79.27
2023-01-29T18:18:01.031Z,79.63
2023-01-29T18:20:27.701Z,79.36
2023-01-29T18:22:54.007Z,79.45
2023-01-29T18:25:20.667Z,79.34
2023-01-29T18:27:47.492Z,79.32
2023-01-29T18:30:14.262Z,79.33
2023-01-29T18:32:40.741Z,79.72
2023-01-29T18:35:08.031Z,79.81
2023-01-29T18:37:34.432Z,79.67
2023-01-29T18:40:00.746Z,79.73
2023-01-29T18:42:27.145Z,79.64
2023-01-29T18:44:53.561Z,79.20
2023-01-29T18:47:20.271Z,79.38
2023-01-29T18:49:46.656Z,79.75
2023-01-29T18:52:13.527Z,79.27
2023-01-29T18:54:39.926Z,79.27
2023-01-29T18:57:14.996Z,79.06
2023-01-29T18:59:52.799Z,79.24
2023-01-29T19:02:19.408Z,79.29
2023-01-29T19:04:46.118Z,79.07
2023-01-29T19:07:13.946Z,78.84
2023-01-29T19:09:40.524Z,78.86
2023-01-29T19:12:07.443Z,78.92
2023-01-29T19:14:33.961Z,79.02
2023-01-29T19:17:01.554Z,79.09
2023-01-29T19:19:28.264Z,78.90
2023-01-29T19:21:54.646Z,78.68
2023-01-29T19:24:21.920Z,78.48
2023-01-29T19:26:48.585Z,79.04
2023-01-29T19:29:15.067Z,78.68
2023-01-29T19:31:41.446Z,78.66
2023-01-29T19:34:09.148Z,79.26
2023-01-29T19:36:36.005Z,79.08
2023-01-29T19:39:02.394Z,78.63
2023-01-29T19:41:28.901Z,78.54
2023-01-29T19:43:55.242Z,78.37
2023-01-29T19:46:21.620Z,78.92
2023-01-29T19:48:48.254Z,78.70
2023-01-29T19:51:14.600Z,79.11
2023-01-29T19:53:44.843Z,78.98
2023-01-29T19:56:14.336Z,79.21
2023-01-29T19:58:40.851Z,78.82
2023-01-29T20:01:13.482Z,79.09
2023-01-29T20:03:41.925Z,78.87
2023-01-29T20:06:08.897Z,78.76
2023-01-29T20:08:35.578Z,78.61
2023-01-29T20:11:02.615Z,79.05
2023-01-29T20:13:29.566Z,78.96
2023-01-29T20:15:56.038Z,78.53
2023-01-29T20:18:22.700Z,78.82
2023-01-29T20:20:50.596Z,78.57
2023-01-29T20:23:28.009Z,78.87
2023-01-29T20:26:02.192Z,78.64
2023-01-29T20:28:28.545Z,78.99
2023-01-29T20:30:59.027Z,78.96
2023-01-29T20:33:25.738Z,79.01
2023-01-29T20:35:56.202Z,78.76
2023-01-29T20:38:22.845Z,78.82
2023-01-29T20:40:49.652Z,78.87
2023-01-29T20:43:15.993Z,78.95
2023-01-29T20:45:42.359Z,78.67
2023-01-29T20:48:08.807Z,78.77
2023-01-29T20:50:35.268Z,78.86
2023-01-29T20:53:01.643Z,79.07
2023-01-29T20:55:28.159Z,79.03
2023-01-29T20:58:05.177Z,79.06
2023-01-29T21:00:32.877Z,79.18
2023-01-29T21:02:59.327Z,79.07
2023-01-29T21:05:25.753Z,79.02
2023-01-29T21:07:52.174Z,79.22
2023-01-29T21:10:18.987Z,79.17
2023-01-29T21:12:45.621Z,79.36
2023-01-29T21:15:12.063Z,79.08
2023-01-29T21:17:38.416Z,79.15
2023-01-29T21:20:05.181Z,79.40
2023-01-29T21:22:31.914Z,79.80
2023-01-29T21:24:58.311Z,79.60
2023-01-29T21:27:25.553Z,79.61
2023-01-29T21:29:51.939Z,79.42
2023-01-29T21:32:18.764Z,79.81
2023-01-29T21:34:45.114Z,80.07
2023-01-29T21:37:11.472Z,79.38
2023-01-29T21:39:37.779Z,79.85
2023-01-29T21:42:22.806Z,79.41
2023-01-29T21:44:49.213Z,79.46
2023-01-29T21:47:15.672Z,79.88
2023-01-29T21:49:43.149Z,80.16
2023-01-29T21:52:11.285Z,80.63
2023-01-29T21:54:39.812Z,80.46
2023-01-29T21:57:08.500Z,80.82
2023-01-29T21:59:35.028Z,80.15
2023-01-29T22:02:01.593Z,80.73
2023-01-29T22:04:28.849Z,80.80
2023-01-29T22:06:55.614Z,81.29
2023-01-29T22:09:22.191Z,81.00
2023-01-29T22:11:48.751Z,80.91
2023-01-29T22:14:18.204Z,81.29
2023-01-29T22:16:45.235Z,81.43
2023-01-29T22:19:12.951Z,81.47
2023-01-29T22:21:39.608Z,81.55
2023-01-29T22:24:06.582Z,82.57
2023-01-29T22:26:33.406Z,82.59
2023-01-29T22:28:59.751Z,82.11
2023-01-29T22:31:26.231Z,82.33
2023-01-29T22:33:53.314Z,82.72
2023-01-29T22:36:19.959Z,82.93
2023-01-29T22:38:46.667Z,82.86
2023-01-29T22:41:15.885Z,83.48
2023-01-29T22:43:43.902Z,83.52
2023-01-29T22:46:10.959Z,83.17
2023-01-29T22:48:37.402Z,83.66
2023-01-29T22:51:10.637Z,83.22
2023-01-29T22:53:37.758Z,83.41
2023-01-29T22:56:04.711Z,83.42
2023-01-29T22:58:31.134Z,84.08
2023-01-29T23:00:57.527Z,83.96
2023-01-29T23:03:24.013Z,83.76
2023-01-29T23:05:50.663Z,84.01
2023-01-29T23:08:17.274Z,84.63
2023-01-29T23:10:43.629Z,84.80
2023-01-29T23:13:10.049Z,84.56
2023-01-29T23:15:36.381Z,84.12
2023-01-29T23:18:03.249Z,83.94
2023-01-29T23:20:29.786Z,84.24
2023-01-29T23:22:56.169Z,84.48
2023-01-29T23:25:22.509Z,84.73
2023-01-29T23:27:48.916Z,84.12
2023-01-29T23:30:15.746Z,84.29
2023-01-29T23:32:42.902Z,84.63
2023-01-29T23:35:09.343Z,84.46
2023-01-29T23:37:35.769Z,84.83
2023-01-29T23:40:02.579Z,85.17
2023-01-29T23:42:29.270Z,85.42
2023-01-29T23:44:55.604Z,84.35
2023-01-29T23:47:22.025Z,84.69
2023-01-29T23:49:48.348Z,85.01
2023-01-29T23:52:14.763Z,85.78
2023-01-29T23:54:41.228Z,84.82
2023-01-29T23:57:07.617Z,85.41
2023-01-29T23:59:34.053Z,85.40
